Terminal Aerodrome Forecast
Issued by NWS

Home | Current Version | Previous Version | Graphics & Text | Print | Product List | Glossary On
Versions: 1 2 3 4 5 6 7 8 9 10 11 12 13
000
FTUS43 KBIS 011700
TAFJMS
TAF
KJMS 011736Z 0118/0218 06006KT P6SM FEW045 SCT060
     FM012300 09005KT P6SM SCT050
     FM020200 11006KT P6SM SCT070 SCT100
     FM021400 12004KT P6SM SCT090 BKN100=

USA.gov is the U.S. government's official web portal to all federal, state and local government web resources and services.